EW4137 Weather Reports


Display with metric or nautical units.
time (UTC)temp
F
wind
direction
speed
MPH
gust
MPH
rain 1hr
in
rain 24hr
in
rain mn
in
humidity
%
barometer
mb
20240223062716 30 0.0 0.0 0.00 0.00 0.00 93 1004.8
20240223061716 31 0.0 0.0 0.00 0.00 0.00 93 1004.6
20240223060716 31 248 1.0 2.0 0.00 0.00 0.00 93 1004.6
20240223055716 31 0.0 1.0 0.00 0.00 0.00 93 1004.6
20240223054716 31 0.0 1.0 0.00 0.00 0.00 92 1004.6
20240223053716 31 0.0 1.0 0.00 0.00 0.00 92 1004.4
20240223052716 32 0.0 0.0 0.00 0.00 0.00 91 1004.4
20240223051716 32 0.0 0.0 0.00 0.00 0.00 91 1004.2
20240223050716 32 0.0 0.0 0.00 0.00 0.00 91 1004.1
20240223045716 33 0.0 2.0 0.00 0.00 0.00 91 1004.0
20240223044736 33 248 1.0 2.0 0.00 0.00 0.00 91 1003.8
20240223043716 33 248 1.0 2.0 0.00 0.00 0.00 90 1003.8
20240223042716 34 248 1.0 2.0 0.00 0.00 0.00 90 1003.6
20240223041716 34 0.0 0.0 0.00 0.00 0.00 89 1003.7
20240223040716 35 0.0 1.0 0.00 0.00 0.00 89
20240223035716 35 248 2.0 3.0 0.00 0.00 0.00 88
20240223034756 36 0.0 0.0 0.00 0.00 0.00 88
20240223033716 36 0.0 0.0 0.00 0.00 0.00 88
20240223032716 37 0.0 0.0 0.00 0.00 0.00 88
20240223031716 37 0.0 1.0 0.00 0.00 0.00 87
20240223030716 38 248 1.0 2.0 0.00 0.00 0.00 87
20240223025716 38 0.0 0.0 0.00 0.00 0.00 87
20240223024716 38 248 1.0 2.0 0.00 0.00 0.00 86
20240223023716 39 248 1.0 1.0 0.00 0.00 0.00 85
20240223022741 39 248 1.0 2.0 0.00 0.00 0.00 84
20240223021716 40 248 1.0 2.0 0.00 0.00 0.00 84
20240223020736 40 0.0 1.0 0.00 0.00 0.00 82 1002.7
20240223015716 41 248 1.0 2.0 0.00 0.00 0.00 81 1002.8
20240223014715 42 248 1.0 1.0 0.00 0.00 0.00 79 1002.7
20240223013715 43 0.0 1.0 0.00 0.00 0.00 77 1002.7
20240223012716 44 248 2.0 3.0 0.00 0.00 0.00 74 1002.6
20240223011716 45 225 2.0 3.0 0.00 0.00 0.00 71 1002.6
20240223010716 46 225 1.0 1.0 0.00 0.00 0.00 69 1002.6
20240223005715 47 225 1.0 2.0 0.00 0.00 0.00 65 1002.6
20240223004716 48 225 3.0 4.0 0.00 0.00 0.00 64 1002.5
20240223003716 48 203 2.0 4.0 0.00 0.00 0.00 63 1002.5
20240223002715 48 0.0 1.0 0.00 0.00 0.00 63 1002.5
20240223001716 49 225 3.0 4.0 0.00 0.00 0.00 62 1002.5
20240223000716 49 158 1.0 2.0 0.00 0.00 0.00 62 1002.8
20240222235716 49 135 2.0 4.0 0.00 0.00 0.00 61 1002.7
20240222234715 50 225 2.0 4.0 0.00 0.00 0.00 61 1002.8
20240222233715 50 158 2.0 4.0 0.00 0.00 0.00 62 1003.1
20240222232715 50 158 1.0 2.0 0.00 0.00 0.00 62 1003.0
20240222231717 50 113 3.0 5.0 0.00 0.00 0.00 61 1003.0
20240222230717 50 180 2.0 3.0 0.00 0.00 0.00 60 1002.9
20240222225717 50 180 2.0 4.0 0.00 0.00 0.00 60 1002.9
20240222224715 50 113 3.0 4.0 0.00 0.00 0.00 60 1003.2
20240222223717 50 158 3.0 4.0 0.00 0.00 0.00 60 1003.2
20240222222717 50 135 5.0 8.0 0.00 0.00 0.00 59 1003.2
20240222221717 50 135 5.0 9.0 0.00 0.00 0.00 58 1003.2
20240222220717 50 135 3.0 5.0 0.00 0.00 0.00 58 1003.1
20240222215737 50 90 3.0 5.0 0.00 0.00 0.00 58 1003.1
20240222214717 50 113 3.0 6.0 0.00 0.00 0.00 57 1003.1
20240222213717 51 158 3.0 4.0 0.00 0.00 0.00 59 1003.0
20240222212717 51 90 3.0 5.0 0.00 0.00 0.00 54 1003.1
20240222211717 52 225 1.0 3.0 0.00 0.00 0.00 54 1003.2
20240222210717 51 45 2.0 4.0 0.00 0.00 0.00 56 1003.3
20240222205717 51 135 4.0 5.0 0.00 0.00 0.00 56 1003.4
20240222204757 50 113 1.0 2.0 0.00 0.00 0.00 56 1003.4
20240222203717 50 0 1.0 2.0 0.00 0.00 0.00 60 1003.3
20240222202717 50 90 2.0 3.0 0.00 0.00 0.00 61 1003.5
20240222201717 49 158 2.0 5.0 0.00 0.00 0.00 63 1003.5
20240222200757 47 0 2.0 3.0 0.00 0.00 0.00 69 1003.4
20240222195757 46 225 1.0 1.0 0.00 0.00 0.00 71 1003.5
20240222194737 46 225 3.0 3.0 0.00 0.00 0.00 76 1003.5
20240222193717 45 225 2.0 3.0 0.00 0.00 0.00 78 1003.6
20240222192737 44 203 2.0 3.0 0.00 0.00 0.00 78 1003.7
20240222191717 43 203 2.0 4.0 0.00 0.00 0.00 79 1003.6
20240222190717 43 203 3.0 4.0 0.00 0.00 0.00 80 1003.8
20240222185737 42 225 2.0 3.0 0.00 0.00 0.00 81 1003.9
20240222184716 42 225 1.0 2.0 0.00 0.00 0.00 82 1004.0
20240222183717 41 203 3.0 4.0 0.00 0.00 0.00 83 1004.0
20240222182717 40 270 1.0 2.0 0.00 0.00 0.00 84 1003.8
20240222181716 40 248 1.0 2.0 0.00 0.00 0.00 84 1003.9
20240222180716 40 225 3.0 4.0 0.00 0.00 0.00 86 1003.9
20240222175716 39 248 4.0 7.0 0.00 0.00 0.00 86 1003.9
20240222174717 39 270 4.0 4.0 0.00 0.00 0.00 87 1004.0
20240222173717 38 248 3.0 4.0 0.00 0.00 0.00 87 1003.9
20240222172716 38 293 2.0 4.0 0.00 0.00 0.00 89 1003.9
20240222171716 37 203 1.0 2.0 0.00 0.00 0.00 90 1003.7
20240222170716 37 203 2.0 3.0 0.00 0.00 0.00 90 1003.5
20240222165717 37 225 2.0 3.0 0.00 0.00 0.00 91 1003.4
20240222164717 36 0.0 1.0 0.00 0.00 0.00 92 1003.3
20240222163716 35 203 2.0 3.0 0.00 0.01 0.00 93 1003.1
20240222162736 35 0.0 0.0 0.00 0.01 0.00 93 1003.0
20240222161716 35 180 1.0 1.0 0.00 0.01 0.00 93 1002.9
20240222160716 0 0.0 0.0 0.00 0.01 0.00
20240222155812 0 0.0 0.0 0.00 0.01 0.00
20240222155634 0 0.0 0.0 0.00 0.01 0.00
20240222155017 0 0.0 0.0 0.00 0.01 0.00
20240222154112 0 0.0 0.0 0.00 0.01 0.00
20240222153955 0 0.0 0.0 0.00 0.01 0.00
20240222153316 0 0.0 0.0 0.00 0.01 0.00
20240222152432 0 0.0 0.0 0.00 0.01 0.00
20240222152235 0 0.0 0.0 0.00 0.01 0.00
20240222151616 0 0.0 0.0 0.00 0.01 0.00
20240222150712 0 0.0 0.0 0.00 0.01 0.00
20240222150535 0 0.0 0.0 0.00 0.01 0.00
20240222145916 0 0.0 0.0 0.00 0.01 0.00
20240222145012 0 0.0 0.0 0.00 0.01 0.00
20240222144834 0 0.0 0.0 0.00 0.01 0.00
20240222144317 0 0.0 0.0 0.00 0.01 0.00
20240222143312 0 0.0 0.0 0.00 0.01 0.00
20240222143134 0 0.0 0.0 0.00 0.01 0.00
20240222142416 0 0.0 0.0 0.00 0.01 0.00
20240222141524 35 0.0 0.0 0.00 0.01 0.00 93 1001.8
20240222141328 35 0.0 0.0 0.00 0.01 0.00 93 1001.8
20240222141151 35 0.0 0.0 0.00 0.01 0.00 93 1001.8
20240222141015 35 0.0 0.0 0.00 0.01 0.00 93 1001.8
20240222140839 35 0.0 0.0 0.00 0.01 0.00 93 1001.8
20240222140702 35 0.0 0.0 0.00 0.01 0.00 93 1001.7
20240222135616 35 0.0 0.0 0.00 0.01 0.00 93 1001.8
20240222134616 35 45 1.0 1.0 0.00 0.01 0.00 93 1001.9
20240222133616 35 90 2.0 2.0 0.00 0.01 0.00 93 1001.7
20240222132636 35 180 1.0 1.0 0.00 0.01 0.00 93 1001.6
20240222131616 35 0.0 0.0 0.00 0.01 0.00 93 1001.5
20240222130616 35 0.0 1.0 0.00 0.01 0.00 93 1001.3
20240222125616 35 68 1.0 2.0 0.00 0.01 0.00 92 1001.4
20240222124616 35 45 3.0 4.0 0.00 0.01 0.00 92 1001.3
20240222123616 35 45 2.0 3.0 0.00 0.01 0.00 93 1001.2
20240222122616 36 90 1.0 2.0 0.00 0.01 0.00 93 1001.1
20240222121616 36 225 1.0 1.0 0.00 0.01 0.00 92 1001.1
20240222120616 36 0.0 1.0 0.00 0.01 0.00 92 1001.1
20240222115616 36 225 1.0 2.0 0.00 0.01 0.00 92 1001.1
20240222114636 36 293 1.0 1.0 0.00 0.01 0.00 92 1001.1
20240222113636 36 270 2.0 3.0 0.00 0.01 0.00 92 1001.0
20240222112615 36 338 2.0 3.0 0.00 0.01 0.00 93 1000.9
20240222111616 36 0.0 0.0 0.00 0.01 0.00 93 1000.8
20240222110616 36 0.0 0.0 0.00 0.01 0.00 92 1000.8
20240222105616 36 0.0 0.0 0.00 0.01 0.00 92 1000.6
20240222104616 36 0.0 0.0 0.00 0.01 0.00 92 1000.6
20240222103615 36 293 2.0 2.0 0.00 0.01 0.00 93 1000.6
20240222102656 36 293 2.0 3.0 0.00 0.01 0.00 92 1000.3
20240222101616 36 0.0 0.0 0.00 0.01 0.00 92 1000.4
20240222100615 36 0.0 0.0 0.00 0.01 0.00 92 1000.3
20240222095616 36 0.0 0.0 0.00 0.01 0.00 92 1000.3
20240222094615 36 293 2.0 3.0 0.00 0.01 0.00 92 1000.2
20240222093616 36 0.0 0.0 0.00 0.01 0.00 93 1000.1
20240222092615 36 0.0 1.0 0.00 0.01 0.00 93 1000.0
20240222091615 36 293 1.0 1.0 0.00 0.01 0.00 93 999.9
20240222090616 36 0.0 0.0 0.00 0.01 0.00 93 999.8
20240222085615 36 0.0 0.0 0.00 0.01 0.00 93 999.8
20240222084615 36 0.0 0.0 0.00 0.01 0.00 93 999.7
20240222083618 36 0.0 0.0 0.00 0.01 0.00 93 999.6
20240222082637 36 0.0 1.0 0.00 0.01 0.00 93 999.6
20240222081617 36 293 1.0 2.0 0.00 0.01 0.00 93 999.5
20240222080617 36 270 1.0 1.0 0.00 0.01 0.00 94 999.5
20240222075636 36 0.0 1.0 0.00 0.01 0.01 94 999.5
20240222074616 36 0.0 1.0 0.00 0.01 0.01 94 999.4
20240222073616 36 0.0 1.0 0.00 0.01 0.01 93 999.2
20240222072616 36 0.0 0.0 0.00 0.01 0.01 93 999.1
20240222071616 36 0.0 0.0 0.00 0.01 0.01 93 999.0
20240222070616 36 0.0 0.0 0.00 0.01 0.01 93 998.5
20240222065636 36 270 2.0 2.0 0.00 0.01 0.01 93 998.4
20240222064616 37 0.0 0.0 0.00 0.01 0.01 93 998.6
20240222063616 37 0.0 1.0 0.00 0.01 0.01 92 998.6